Time;durP1;ratioP1;P1;durP2;ratioP2;P2;SDS_P1;SDS_P2;PMS_P1;PMS_P2;Temp;Humidity;BMP_temperature;BMP_pressure;BME280_temperature;BME280_humidity;BME280_pressure;Samples;Min_cycle;Max_cycle;Signal;HPM_P1;HPM_P2
2022/04/29 00:00:16;;;;;;;1.03;1.03;;;11.40;99.90;10.70;102779.00;;;;5095473;28;20263;-81
2022/04/29 00:02:43;;;;;;;0.80;0.80;;;11.30;99.90;11.20;102796.00;;;;5094446;28;20200;-79
2022/04/29 00:05:10;;;;;;;0.47;0.47;;;11.30;99.90;11.00;102760.00;;;;5095600;28;20178;-79
2022/04/29 00:07:39;;;;;;;0.53;0.53;;;11.40;99.90;11.30;102801.00;;;;5077582;28;20184;-80
2022/04/29 00:10:12;;;;;;;0.87;0.87;;;11.40;99.90;10.90;102787.00;;;;5094278;28;20182;-80
2022/04/29 00:12:41;;;;;;;0.87;0.57;;;11.30;99.90;10.50;102783.00;;;;5093977;28;20231;-80
2022/04/29 00:15:09;;;;;;;0.40;0.40;;;11.00;99.90;10.80;102769.00;;;;5094828;28;20205;-80
2022/04/29 00:17:35;;;;;;;0.60;0.60;;;11.10;99.90;11.10;102732.00;;;;5077150;28;20175;-80
2022/04/29 00:20:01;;;;;;;0.40;0.40;;;11.20;99.90;11.10;102786.00;;;;5093702;28;20188;-80
2022/04/29 00:22:27;;;;;;;0.87;0.87;;;11.30;99.90;9.90;102773.00;;;;5082369;28;20176;-79
2022/04/29 00:24:55;;;;;;;0.70;0.70;;;10.90;99.90;10.20;102779.00;;;;5115856;28;20169;-81
2022/04/29 00:27:21;;;;;;;3.67;2.57;;;10.60;99.90;9.90;102778.00;;;;5113591;28;20176;-79
2022/04/29 00:29:50;;;;;;;1.20;1.17;;;10.60;99.90;9.60;102766.00;;;;5096235;28;20180;-79
2022/04/29 00:32:22;;;;;;;0.73;0.73;;;10.40;99.90;9.50;102734.00;;;;5095734;28;20216;-79
2022/04/29 00:34:54;;;;;;;0.40;0.40;;;10.20;99.90;9.60;102724.00;;;;5114423;28;20199;-78
2022/04/29 00:37:22;;;;;;;0.40;0.40;;;10.20;99.90;9.60;102773.00;;;;5113528;28;20198;-78
2022/04/29 00:39:54;;;;;;;0.50;0.50;;;10.20;99.90;9.70;102761.00;;;;5096905;28;20184;-77
2022/04/29 00:42:24;;;;;;;1.53;1.13;;;10.30;99.90;9.30;102778.00;;;;5115453;28;20250;-77
2022/04/29 00:44:54;;;;;;;2.27;2.17;;;10.10;99.90;9.30;102773.00;;;;5114296;28;20176;-77
2022/04/29 00:47:23;;;;;;;1.40;1.00;;;10.00;99.90;9.40;102723.00;;;;5114194;28;20593;-77
2022/04/29 00:49:49;;;;;;;0.57;0.57;;;10.00;99.90;9.60;102763.00;;;;5096399;28;20184;-77
2022/04/29 00:52:19;;;;;;;0.50;0.50;;;10.00;99.90;9.90;102751.00;;;;5114924;28;20228;-79
2022/04/29 00:54:52;;;;;;;0.80;0.80;;;10.20;99.90;10.30;102759.00;;;;5095812;28;20191;-77
2022/04/29 00:57:30;;;;;;;0.40;0.40;;;10.40;99.90;10.30;102719.00;;;;5113797;28;20178;-77
2022/04/29 01:00:10;;;;;;;0.40;0.40;;;10.50;99.90;10.00;102752.00;;;;5096057;28;20203;-77
2022/04/29 01:02:42;;;;;;;0.50;0.50;;;10.50;99.90;10.60;102755.00;;;;5095933;28;20216;-77
2022/04/29 01:05:16;;;;;;;0.80;0.80;;;10.70;99.90;10.80;102767.00;;;;5113508;28;20267;-77
2022/04/29 01:07:51;;;;;;;0.60;0.60;;;10.90;99.90;11.10;102704.00;;;;5096859;28;20319;-78
2022/04/29 01:10:23;;;;;;;0.60;0.60;;;11.10;99.90;11.20;102759.00;;;;5113340;28;20168;-78
2022/04/29 01:12:59;;;;;;;1.33;1.33;;;11.30;99.90;10.80;102750.00;;;;5112607;28;20205;-78
2022/04/29 01:15:33;;;;;;;0.80;0.80;;;11.20;99.90;11.10;102756.00;;;;5113565;28;20264;-78
2022/04/29 01:18:09;;;;;;;0.50;0.50;;;11.20;99.90;10.50;102750.00;;;;5096816;28;20275;-78
2022/04/29 01:20:36;;;;;;;0.60;0.60;;;11.20;99.90;10.40;102731.00;;;;5111958;28;20172;-79
2022/04/29 01:23:11;;;;;;;0.63;0.63;;;11.00;99.90;10.50;102723.00;;;;5092372;28;20184;-78
2022/04/29 01:25:41;;;;;;;0.50;0.50;;;10.90;99.90;9.70;102707.00;;;;5075731;28;20204;-80
2022/04/29 01:28:09;;;;;;;0.40;0.40;;;10.60;99.90;9.50;102718.00;;;;5093092;28;20222;-79
2022/04/29 01:30:36;;;;;;;1.07;1.07;;;10.30;99.90;9.60;102690.00;;;;5074963;28;20208;-78
2022/04/29 01:33:07;;;;;;;0.40;0.40;;;10.20;99.90;9.80;102731.00;;;;5091903;28;20239;-79
2022/04/29 01:35:33;;;;;;;1.43;1.40;;;10.30;99.90;9.90;102728.00;;;;5093345;28;20173;-79
2022/04/29 01:37:59;;;;;;;0.60;0.60;;;10.40;99.90;9.90;102727.00;;;;5075451;28;20645;-80
2022/04/29 01:40:25;;;;;;;1.83;1.70;;;10.40;99.90;10.20;102743.00;;;;5092661;28;20624;-81
2022/04/29 01:43:00;;;;;;;0.40;0.40;;;10.40;99.90;10.10;102718.00;;;;5093116;28;20666;-80
2022/04/29 01:45:32;;;;;;;0.40;0.40;;;10.50;99.90;9.90;102709.00;;;;5093670;28;20176;-82
2022/04/29 01:47:58;;;;;;;0.70;0.70;;;10.50;99.90;9.60;102720.00;;;;5109310;28;20208;-80
2022/04/29 01:50:26;;;;;;;0.53;0.53;;;10.30;99.90;9.50;102724.00;;;;5109510;28;20636;-80
2022/04/29 01:52:52;;;;;;;0.40;0.40;;;10.20;99.90;9.50;102723.00;;;;5108248;28;20206;-80
2022/04/29 01:55:18;;;;;;;0.50;0.50;;;10.10;99.90;9.60;102709.00;;;;5108862;28;20189;-81
2022/04/29 01:57:50;;;;;;;0.80;0.80;;;10.20;99.90;9.80;102681.00;;;;5109769;28;20178;-82
2022/04/29 02:00:21;;;;;;;12.73;8.00;;;10.20;99.90;9.50;102733.00;;;;5108262;28;20173;-81
2022/04/29 02:02:58;;;;;;;1.90;1.70;;;10.20;99.90;9.70;102717.00;;;;5107787;28;20762;-80
2022/04/29 02:05:27;;;;;;;0.87;0.87;;;10.20;99.90;9.70;102719.00;;;;5091292;28;20195;-81
2022/04/29 02:08:00;;;;;;;0.40;0.40;;;10.20;99.90;9.50;102691.00;;;;5107859;28;20192;-81
2022/04/29 02:10:26;;;;;;;2.90;1.50;;;10.10;99.90;9.30;102718.00;;;;5092655;28;20177;-82
2022/04/29 02:12:58;;;;;;;0.40;0.40;;;10.10;99.90;9.80;102718.00;;;;5092254;28;20679;-81
2022/04/29 02:15:24;;;;;;;1.03;1.03;;;10.20;99.90;9.40;102722.00;;;;5090092;28;20169;-81
2022/04/29 02:17:58;;;;;;;1.37;1.37;;;10.10;99.90;9.50;102736.00;;;;5092711;28;20177;-81
2022/04/29 02:20:27;;;;;;;3.57;2.43;;;10.20;99.90;9.60;102709.00;;;;5091183;28;20183;-78
2022/04/29 02:22:58;;;;;;;1.13;1.10;;;10.10;99.90;9.40;102679.00;;;;5091013;28;20440;-77
2022/04/29 02:25:29;;;;;;;3.20;1.50;;;10.10;99.90;9.40;102720.00;;;;5074450;28;20285;-77
2022/04/29 02:27:55;;;;;;;0.60;0.60;;;10.10;99.90;9.40;102685.00;;;;5074470;28;20268;-77
2022/04/29 02:30:27;;;;;;;0.40;0.40;;;10.00;99.90;9.50;102686.00;;;;5075026;28;20272;-78
2022/04/29 02:32:59;;;;;;;0.57;0.57;;;10.10;99.90;9.50;102720.00;;;;5093069;28;20212;-78
2022/04/29 02:35:25;;;;;;;0.70;0.70;;;10.10;99.90;9.40;102706.00;;;;5090256;28;20284;-80
2022/04/29 02:37:51;;;;;;;1.37;1.37;;;10.00;99.90;9.60;102722.00;;;;5081604;28;20189;-80
2022/04/29 02:40:17;;;;;;;0.40;0.40;;;10.10;99.90;9.70;102717.00;;;;5093020;28;20206;-79
2022/04/29 02:42:43;;;;;;;0.93;0.90;;;10.20;99.90;9.40;102674.00;;;;5074355;28;20245;-78
2022/04/29 02:45:10;;;;;;;0.50;0.50;;;10.00;99.90;9.10;102713.00;;;;5092118;28;20620;-78
2022/04/29 02:47:41;;;;;;;1.27;1.27;;;9.90;99.90;9.30;102704.00;;;;5074397;28;20645;-79
2022/04/29 02:50:10;;;;;;;0.50;0.50;;;9.90;99.90;9.20;102703.00;;;;5073873;28;20632;-78
2022/04/29 02:52:43;;;;;;;0.50;0.50;;;9.90;99.90;9.10;102701.00;;;;5091619;28;20299;-79
2022/04/29 02:55:09;;;;;;;1.27;0.70;;;9.80;99.90;9.30;102691.00;;;;5091043;28;20185;-79
2022/04/29 02:57:35;;;;;;;1.73;1.53;;;9.80;99.90;9.10;102701.00;;;;5096267;28;20187;-79
2022/04/29 03:00:02;;;;;;;1.63;1.27;;;9.80;99.90;9.10;102694.00;;;;5111655;28;20176;-78
2022/04/29 03:02:40;;;;;;;0.40;0.40;;;9.80;99.90;9.20;102681.00;;;;5095198;28;20188;-77
2022/04/29 03:05:07;;;;;;;0.60;0.60;;;9.80;99.90;9.20;102697.00;;;;5094306;28;20187;-78
2022/04/29 03:07:33;;;;;;;1.27;1.23;;;9.80;99.90;9.10;102706.00;;;;5105170;28;20646;-78
2022/04/29 03:10:05;;;;;;;0.70;0.70;;;9.80;99.90;9.00;102706.00;;;;5073956;28;20177;-78
2022/04/29 03:12:31;;;;;;;0.60;0.60;;;9.70;99.90;9.00;102695.00;;;;5091128;28;20211;-77
2022/04/29 03:15:15;;;;;;;0.67;0.67;;;9.60;99.90;9.00;102708.00;;;;5073692;28;20177;-79
2022/04/29 03:20:35;;;;;;;1.70;1.10;;;9.70;99.90;9.70;102714.00;;;;5094658;28;20184;-78
2022/04/29 03:23:02;;;;;;;0.60;0.60;;;9.90;99.90;9.10;102683.00;;;;5077004;28;20232;-79
2022/04/29 03:25:28;;;;;;;0.40;0.40;;;9.80;99.90;8.90;102670.00;;;;5077287;28;20196;-79
2022/04/29 03:27:56;;;;;;;0.70;0.70;;;9.60;99.90;8.90;102707.00;;;;5094803;28;20605;-79
2022/04/29 03:30:22;;;;;;;0.70;0.70;;;9.50;99.90;8.90;102712.00;;;;5077690;28;20192;-77
2022/04/29 03:32:59;;;;;;;0.73;0.73;;;9.60;99.90;9.50;102687.00;;;;5076873;28;20220;-77
2022/04/29 03:35:25;;;;;;;0.77;0.77;;;9.80;99.90;9.30;102703.00;;;;5111678;28;20165;-78
2022/04/29 03:37:53;;;;;;;0.70;0.70;;;9.80;99.90;9.40;102648.00;;;;5078384;28;20172;-78
2022/04/29 03:40:24;;;;;;;0.60;0.60;;;9.80;99.90;9.60;102695.00;;;;5094906;28;20191;-78
2022/04/29 03:42:53;;;;;;;0.77;0.77;;;9.90;99.90;9.00;102695.00;;;;5094350;28;20200;-78
2022/04/29 03:45:21;;;;;;;0.47;0.47;;;9.80;99.90;9.70;102682.00;;;;5078042;28;20657;-78
2022/04/29 03:47:50;;;;;;;0.67;0.67;;;10.00;99.90;9.10;102641.00;;;;5093972;28;20169;-78
2022/04/29 03:50:17;;;;;;;1.43;1.37;;;9.80;99.90;9.00;102635.00;;;;5093988;28;20181;-78
2022/04/29 03:52:59;;;;;;;0.50;0.50;;;9.60;99.90;9.00;102685.00;;;;5093566;28;20667;-77
2022/04/29 03:55:28;;;;;;;1.03;1.03;;;9.60;99.90;9.80;102634.00;;;;5077812;28;20267;-79
2022/04/29 03:57:55;;;;;;;0.70;0.70;;;9.80;99.90;9.70;102672.00;;;;5077091;28;20176;-79
2022/04/29 04:00:24;;;;;;;0.40;0.40;;;9.90;99.90;9.70;102663.00;;;;5094390;28;20544;-77
2022/04/29 04:02:51;;;;;;;0.50;0.50;;;10.10;99.90;9.80;102662.00;;;;5077041;28;20197;-76
2022/04/29 04:05:18;;;;;;;0.67;0.67;;;10.20;99.90;9.30;102653.00;;;;5077218;28;20226;-75
2022/04/29 04:07:45;;;;;;;0.50;0.50;;;10.00;99.90;9.20;102660.00;;;;5109269;28;20264;-78
2022/04/29 04:10:13;;;;;;;0.50;0.50;;;9.70;99.90;9.40;102659.00;;;;5094176;28;20211;-78
2022/04/29 04:12:41;;;;;;;0.40;0.40;;;9.80;99.90;9.30;102663.00;;;;5094645;28;20684;-78
2022/04/29 04:15:09;;;;;;;1.37;1.37;;;9.90;99.90;9.00;102655.00;;;;5075988;28;20181;-78
2022/04/29 04:17:36;;;;;;;0.40;0.40;;;9.70;99.90;8.60;102656.00;;;;5094321;28;20176;-80
2022/04/29 04:20:04;;;;;;;0.40;0.40;;;9.40;99.90;8.80;102655.00;;;;5094698;28;20180;-79
2022/04/29 04:22:31;;;;;;;0.83;0.83;;;9.40;99.90;9.00;102667.00;;;;5093639;28;20616;-79
2022/04/29 04:25:04;;;;;;;0.50;0.50;;;9.40;99.90;8.80;102625.00;;;;5104081;28;20187;-78
2022/04/29 04:27:33;;;;;;;0.97;0.97;;;9.40;99.90;8.90;102679.00;;;;5114581;28;20275;-77
2022/04/29 04:30:03;;;;;;;1.57;1.57;;;9.40;99.90;8.70;102674.00;;;;5112872;28;20216;-75
2022/04/29 04:32:33;;;;;;;0.40;0.40;;;9.40;99.90;9.10;102664.00;;;;5113672;28;20214;-75
2022/04/29 04:35:02;;;;;;;0.87;0.87;;;9.50;99.90;9.40;102666.00;;;;5097672;28;20184;-75
2022/04/29 04:37:35;;;;;;;0.83;0.83;;;9.70;99.90;9.40;102670.00;;;;5114055;28;20203;-75
2022/04/29 04:40:10;;;;;;;0.30;0.30;;;9.70;99.90;8.80;102653.00;;;;5096946;28;20666;-75
2022/04/29 04:42:44;;;;;;;0.40;0.40;;;9.50;99.90;8.90;102641.00;;;;5097649;28;20655;-76
2022/04/29 04:45:18;;;;;;;0.47;0.47;;;9.40;99.90;8.60;102660.00;;;;5115179;28;20454;-75
2022/04/29 04:47:44;;;;;;;1.10;1.00;;;9.20;99.90;8.50;102675.00;;;;5113068;28;20184;-75
2022/04/29 04:50:13;;;;;;;0.70;0.70;;;9.10;99.90;9.20;102669.00;;;;5114788;28;20177;-76
2022/04/29 04:52:44;;;;;;;0.40;0.40;;;9.30;99.90;8.70;102680.00;;;;5113065;28;20199;-76
2022/04/29 04:55:11;;;;;;;0.60;0.60;;;9.20;99.90;8.90;102670.00;;;;5113773;28;20183;-76
2022/04/29 04:57:42;;;;;;;0.50;0.50;;;9.20;99.90;8.50;102647.00;;;;5096926;28;20180;-76
2022/04/29 05:00:14;;;;;;;0.57;0.57;;;9.10;99.90;8.90;102597.00;;;;5113194;28;20182;-76
2022/04/29 05:02:41;;;;;;;0.73;0.73;;;9.30;99.90;8.30;102672.00;;;;5096700;28;20191;-77
2022/04/29 05:05:08;;;;;;;1.37;1.27;;;9.00;99.90;8.20;102670.00;;;;5096946;28;20568;-76
2022/04/29 05:07:38;;;;;;;1.00;1.00;;;8.90;99.90;8.50;102672.00;;;;5112822;28;20161;-76
2022/04/29 05:10:10;;;;;;;1.17;1.17;;;9.00;99.90;7.80;102656.00;;;;5092667;28;20540;-76
2022/04/29 05:12:45;;;;;;;1.23;1.23;;;8.80;99.90;7.80;102686.00;;;;5075158;28;20199;-77
2022/04/29 05:15:13;;;;;;;0.80;0.80;;;8.70;99.90;7.80;102680.00;;;;5091179;28;20236;-77
2022/04/29 05:17:43;;;;;;;0.47;0.47;;;8.60;99.90;8.10;102690.00;;;;5092962;28;20214;-77
2022/04/29 05:20:15;;;;;;;0.90;0.90;;;8.70;99.90;8.30;102682.00;;;;5109456;28;20568;-79
2022/04/29 05:22:42;;;;;;;0.60;0.47;;;8.90;99.90;8.50;102681.00;;;;5075356;28;20278;-79
2022/04/29 05:25:13;;;;;;;1.03;1.03;;;9.00;99.90;8.50;102644.00;;;;5093120;28;20190;-79
2022/04/29 05:27:39;;;;;;;1.27;1.17;;;9.10;99.90;8.50;102691.00;;;;5075323;28;20233;-77
2022/04/29 05:30:06;;;;;;;0.77;0.77;;;9.20;99.90;8.30;102688.00;;;;5092019;28;20184;-78
2022/04/29 05:32:32;;;;;;;5.00;4.70;;;9.00;99.90;8.10;102685.00;;;;5074928;28;20212;-78
2022/04/29 05:34:59;;;;;;;1.97;1.90;;;9.00;99.90;8.30;102694.00;;;;5075719;28;20520;-78
2022/04/29 05:37:31;;;;;;;0.83;0.83;;;8.90;99.90;8.90;102684.00;;;;5093364;28;20230;-78
2022/04/29 05:42:53;;;;;;;0.50;0.50;;;9.40;99.90;9.30;102707.00;;;;5093118;28;20231;-78
2022/04/29 05:45:19;;;;;;;0.50;0.50;;;9.50;99.90;9.20;102694.00;;;;5092622;28;20576;-80
2022/04/29 05:47:47;;;;;;;0.40;0.40;;;9.70;99.90;9.00;102709.00;;;;5075405;28;20195;-79
2022/04/29 05:50:14;;;;;;;0.40;0.40;;;9.60;99.90;8.70;102698.00;;;;5092739;28;20176;-81
2022/04/29 05:52:42;;;;;;;0.40;0.40;;;9.50;99.90;9.40;102705.00;;;;5092542;28;20286;-79
2022/04/29 05:55:16;;;;;;;0.90;0.90;;;9.60;99.90;9.50;102668.00;;;;5092698;28;20177;-78
2022/04/29 05:57:42;;;;;;;0.70;0.70;;;9.90;99.90;10.00;102714.00;;;;5092507;28;20271;-79
2022/04/29 06:00:14;;;;;;;1.37;1.30;;;10.10;99.90;9.90;102718.00;;;;5092297;28;20246;-77
2022/04/29 06:02:41;;;;;;;0.40;0.40;;;10.30;99.90;9.50;102712.00;;;;5092260;28;20189;-77
2022/04/29 06:05:08;;;;;;;0.40;0.40;;;10.20;99.90;9.80;102663.00;;;;5091883;28;20190;-77
2022/04/29 06:07:37;;;;;;;0.93;0.93;;;10.30;99.90;10.70;102678.00;;;;5091869;28;20263;-77
2022/04/29 06:10:19;;;;;;;0.87;0.87;;;10.60;99.90;10.80;102718.00;;;;5106580;28;20637;-76
2022/04/29 06:12:53;;;;;;;0.40;0.40;;;11.00;99.90;10.20;102715.00;;;;5096262;28;20739;-78
2022/04/29 06:15:22;;;;;;;0.70;0.70;;;10.80;99.90;10.40;102713.00;;;;5095079;28;20176;-78
2022/04/29 06:17:48;;;;;;;1.13;1.03;;;11.00;99.90;10.90;102702.00;;;;5113163;28;20181;-77
2022/04/29 06:20:19;;;;;;;1.10;1.03;;;11.20;99.90;10.40;102695.00;;;;5114122;28;20172;-78
2022/04/29 06:22:50;;;;;;;0.87;0.87;;;11.10;99.90;11.90;102719.00;;;;5095646;28;20233;-78
2022/04/29 06:25:20;;;;;;;2.30;1.90;;;11.70;99.90;10.70;102711.00;;;;5112039;28;20699;-77
2022/04/29 06:27:52;;;;;;;1.40;1.23;;;11.60;99.90;9.80;102678.00;;;;5095690;28;20179;-78
2022/04/29 06:30:31;;;;;;;0.50;0.50;;;11.00;99.90;10.10;102701.00;;;;5095556;28;20235;-77
2022/04/29 06:32:59;;;;;;;1.23;1.23;;;10.70;99.90;11.00;102716.00;;;;5095112;28;20219;-79
2022/04/29 06:35:25;;;;;;;2.33;2.10;;;11.10;99.90;11.30;102705.00;;;;5095727;28;20183;-81
2022/04/29 06:37:54;;;;;;;0.40;0.40;;;11.40;99.90;11.30;102704.00;;;;5095232;28;20187;-80
2022/04/29 06:40:20;;;;;;;0.90;0.90;;;11.50;99.90;11.20;102684.00;;;;5077366;28;20196;-81
2022/04/29 06:42:46;;;;;;;0.60;0.60;;;11.60;99.90;10.50;102713.00;;;;5091347;28;20564;-80
2022/04/29 06:45:13;;;;;;;1.63;0.83;;;11.40;99.90;10.50;102665.00;;;;5091602;28;20188;-80
2022/04/29 06:47:40;;;;;;;1.03;1.03;;;11.20;99.90;10.50;102717.00;;;;5075580;28;20208;-79
2022/04/29 06:50:13;;;;;;;1.13;1.13;;;11.00;99.90;10.40;102714.00;;;;5091934;28;20220;-79
2022/04/29 06:52:39;;;;;;;0.40;0.40;;;10.90;99.90;11.20;102701.00;;;;5091463;28;20226;-80
2022/04/29 06:55:05;;;;;;;0.60;0.60;;;11.10;99.90;10.30;102718.00;;;;5112272;28;20183;-79
2022/04/29 06:57:34;;;;;;;0.87;0.87;;;10.90;99.90;10.20;102679.00;;;;5097062;28;20176;-79
2022/04/29 07:00:01;;;;;;;1.77;1.63;;;10.90;99.90;10.00;102667.00;;;;5104950;28;20171;-80
2022/04/29 07:02:27;;;;;;;0.40;0.40;;;10.60;99.90;10.00;102713.00;;;;5099170;28;20188;-80
2022/04/29 07:04:56;;;;;;;0.90;0.90;;;10.60;99.90;10.40;102671.00;;;;5117503;28;20640;-80
2022/04/29 07:07:22;;;;;;;0.70;0.70;;;10.70;99.90;10.70;102728.00;;;;5117575;28;20205;-81
2022/04/29 07:09:48;;;;;;;0.40;0.40;;;11.00;99.90;11.00;102732.00;;;;5098604;28;20640;-85
2022/04/29 07:12:14;;;;;;;2.57;2.37;;;11.30;99.90;11.00;102692.00;;;;5115899;28;20256;-76
2022/04/29 07:14:40;;;;;;;0.43;0.43;;;11.30;99.90;10.80;102722.00;;;;5132761;27;20207;-76
2022/04/29 07:17:11;;;;;;;0.40;0.40;;;11.20;99.90;11.00;102737.00;;;;5095846;28;20178;-77
2022/04/29 07:19:40;;;;;;;0.93;0.93;;;11.40;99.90;11.00;102731.00;;;;5096717;28;20182;-77
2022/04/29 07:22:06;;;;;;;0.70;0.70;;;11.30;99.90;11.00;102739.00;;;;5114262;28;20190;-84
2022/04/29 07:24:32;;;;;;;0.73;0.73;;;11.30;99.90;10.50;102706.00;;;;5114005;28;20185;-84
2022/04/29 07:27:01;;;;;;;1.47;1.37;;;11.30;99.90;9.40;102717.00;;;;5096132;28;20176;-85
2022/04/29 07:29:33;;;;;;;0.60;0.60;;;10.70;99.90;9.60;102715.00;;;;5131279;27;20181;-79
2022/04/29 07:32:01;;;;;;;1.07;0.97;;;10.40;99.90;10.10;102722.00;;;;5098196;28;20223;-85
2022/04/29 07:43:05;;;;;;;0.63;0.60;;;10.60;99.90;10.50;102740.00;;;;5096487;28;20208;-85
2022/04/29 07:45:36;;;;;;;3.70;2.13;;;10.80;99.90;9.50;102703.00;;;;5095504;28;20269;-83
2022/04/29 07:48:07;;;;;;;0.50;0.43;;;10.50;99.90;9.70;102749.00;;;;5096514;28;20164;-84
2022/04/29 07:50:36;;;;;;;2.50;2.30;;;10.30;99.90;10.00;102742.00;;;;5091829;28;20222;-84
2022/04/29 07:53:03;;;;;;;0.70;0.70;;;10.40;99.90;9.90;102707.00;;;;5116695;28;20198;-83
2022/04/29 07:55:30;;;;;;;3.50;3.03;;;10.50;99.90;10.20;102732.00;;;;5091491;28;20206;-86
2022/04/29 07:57:56;;;;;;;1.50;1.33;;;10.60;99.90;10.50;102718.00;;;;5095468;28;20177;-84
2022/04/29 08:00:22;;;;;;;1.00;1.00;;;10.80;99.90;9.90;102672.00;;;;5094500;28;20180;-84
2022/04/29 08:02:50;;;;;;;1.57;1.47;;;10.70;99.90;10.00;102721.00;;;;5098109;28;20770;-84
2022/04/29 08:05:18;;;;;;;8.20;2.73;;;10.60;99.90;10.10;102716.00;;;;5107541;28;20207;-84
2022/04/29 08:07:44;;;;;;;1.33;1.17;;;10.70;99.90;10.20;102667.00;;;;5115429;28;20180;-84
2022/04/29 08:10:10;;;;;;;1.70;1.60;;;10.70;99.90;10.00;102698.00;;;;5116668;28;20157;-83
2022/04/29 08:12:39;;;;;;;0.87;0.87;;;10.70;99.90;10.30;102665.00;;;;5116373;28;20246;-84
2022/04/29 08:15:06;;;;;;;1.00;1.00;;;10.80;99.90;10.50;102702.00;;;;5114884;28;20176;-85
2022/04/29 08:17:32;;;;;;;1.73;1.63;;;11.00;99.90;9.60;102706.00;;;;5095617;28;20627;-85
2022/04/29 08:19:58;;;;;;;1.47;1.33;;;10.60;99.90;10.20;102703.00;;;;5094519;28;20183;-84
2022/04/29 08:22:24;;;;;;;2.90;2.80;;;10.70;99.90;10.70;102686.00;;;;5094367;28;20189;-84
2022/04/29 08:24:52;;;;;;;1.60;1.60;;;11.00;99.90;10.50;102731.00;;;;5094813;28;20169;-84
2022/04/29 08:27:18;;;;;;;1.53;1.50;;;10.90;99.90;10.40;102729.00;;;;5110086;28;20183;-85
2022/04/29 08:29:44;;;;;;;3.03;2.83;;;11.00;99.90;10.30;102726.00;;;;5097393;28;20212;-84
2022/04/29 08:32:16;;;;;;;0.67;0.67;;;10.80;99.90;11.00;102720.00;;;;5115087;28;20240;-84
2022/04/29 08:34:44;;;;;;;0.53;0.53;;;11.10;99.90;10.40;102717.00;;;;5114904;28;20178;-86
2022/04/29 08:37:14;;;;;;;0.30;0.30;;;11.00;99.90;10.90;102719.00;;;;5097893;28;20184;-84
2022/04/29 08:39:41;;;;;;;3.90;2.97;;;11.10;99.90;10.40;102671.00;;;;5097139;28;20231;-83
2022/04/29 08:42:19;;;;;;;2.47;1.80;;;11.00;99.90;10.10;102714.00;;;;5114600;28;20188;-80
2022/04/29 08:44:48;;;;;;;0.93;0.60;;;10.70;99.90;9.70;102696.00;;;;5098750;28;20272;-79
2022/04/29 08:47:17;;;;;;;1.83;1.67;;;10.50;99.90;9.80;102654.00;;;;5096654;28;20180;-81
2022/04/29 08:49:45;;;;;;;0.60;0.60;;;10.60;99.90;10.30;102702.00;;;;5114342;28;20263;-82
2022/04/29 08:52:13;;;;;;;0.70;0.70;;;10.70;99.90;10.30;102669.00;;;;5097345;28;20283;-83
2022/04/29 09:00:25;;;;;;;0.60;0.60;;;11.30;99.90;11.20;102709.00;;;;5113844;28;20176;-83
2022/04/29 09:02:52;;;;;;;0.43;0.43;;;11.40;99.90;11.70;102700.00;;;;5115051;28;20206;-84
2022/04/29 09:05:18;;;;;;;1.80;1.47;;;11.80;99.90;12.20;102692.00;;;;5113889;28;20186;-81
2022/04/29 09:08:21;;;;;;;1.57;1.43;;;12.20;99.90;10.90;102690.00;;;;5115237;28;20185;-89
2022/04/29 09:10:57;;;;;;;0.30;0.30;;;11.90;99.90;11.90;102695.00;;;;5096932;28;20552;-86
2022/04/29 09:13:31;;;;;;;1.17;1.07;;;12.10;99.90;11.10;102660.00;;;;5115911;28;20205;-87
2022/04/29 09:16:12;;;;;;;0.87;0.80;;;11.80;99.90;10.60;102709.00;;;;5094990;28;20176;-86
2022/04/29 09:18:49;;;;;;;0.97;0.97;;;11.60;99.90;11.60;102633.00;;;;5130197;27;20620;-86
2022/04/29 09:21:22;;;;;;;1.37;1.27;;;11.80;99.90;12.20;102731.00;;;;5114883;28;20690;-85
2022/04/29 09:24:00;;;;;;;1.03;1.03;;;12.30;99.90;12.80;102742.00;;;;5113949;28;20191;-85
2022/04/29 09:26:36;;;;;;;0.60;0.60;;;12.70;99.90;12.70;102731.00;;;;5108177;28;20238;-86
2022/04/29 09:29:15;;;;;;;2.83;2.63;;;12.90;99.90;12.40;102736.00;;;;5093697;28;20185;-86
2022/04/29 09:31:53;;;;;;;5.87;3.53;;;13.00;99.90;11.60;102724.00;;;;5093246;28;20189;-82
2022/04/29 09:34:43;;;;;;;0.70;0.70;;;12.70;99.90;12.10;102736.00;;;;5093237;28;20204;-83
2022/04/29 09:37:33;;;;;;;1.57;1.47;;;12.70;99.90;13.00;102747.00;;;;5093416;28;20676;-83
2022/04/29 09:40:08;;;;;;;1.47;0.90;;;12.90;99.90;13.20;102746.00;;;;5109598;27;20227;-73
2022/04/29 09:42:45;;;;;;;0.97;0.97;;;13.30;99.90;13.40;102748.00;;;;5114667;28;20237;-85
2022/04/29 09:45:13;;;;;;;0.30;0.30;;;13.40;99.90;13.60;102762.00;;;;5096227;28;20719;-88
2022/04/29 09:47:45;;;;;;;0.40;0.40;;;13.70;99.90;13.60;102709.00;;;;5109474;28;20181;-83
2022/04/29 09:50:14;;;;;;;3.90;2.80;;;13.80;99.90;12.50;102740.00;;;;5092987;28;20232;-83
2022/04/29 09:52:44;;;;;;;2.10;1.47;;;13.50;99.90;13.60;102749.00;;;;5093156;28;20210;-90
2022/04/29 09:55:19;;;;;;;3.67;3.33;;;13.60;99.90;13.90;102751.00;;;;5093557;28;20190;-83
2022/04/29 09:57:56;;;;;;;3.77;3.47;;;13.90;99.90;14.00;102752.00;;;;5094052;28;20632;-77
2022/04/29 10:00:24;;;;;;;12.50;4.23;;;14.20;99.90;14.40;102779.00;;;;5109468;28;20178;-83
2022/04/29 10:02:50;;;;;;;0.60;0.60;;;14.50;99.90;13.70;102748.00;;;;5109543;28;20203;-82
2022/04/29 10:05:24;;;;;;;1.00;0.73;;;14.40;99.90;13.70;102703.00;;;;5109163;28;20233;-82
2022/04/29 10:07:55;;;;;;;2.23;2.07;;;14.30;99.90;13.50;102734.00;;;;5092550;28;20180;-81
2022/04/29 10:10:24;;;;;;;0.20;0.20;;;14.30;99.90;13.50;102747.00;;;;5099129;28;20235;-81
2022/04/29 10:12:51;;;;;;;8.00;4.13;;;14.10;99.90;14.00;102722.00;;;;5092314;28;20195;-75
2022/04/29 10:15:20;;;;;;;0.97;0.97;;;14.30;99.90;14.70;102775.00;;;;5093420;28;20184;-88
2022/04/29 10:43:59;;;;;;;0.50;0.47;;;14.00;99.90;15.50;102794.00;;;;6193499;22;2316504;-82
2022/04/29 10:46:38;;;;;;;0.27;0.27;;;15.50;99.90;14.50;102807.00;;;;6244078;23;20210;-79
2022/04/29 10:49:39;;;;;;;0.47;0.47;;;15.20;99.90;15.20;102746.00;;;;6229031;23;20598;-76
2022/04/29 10:52:05;;;;;;;5.83;3.50;;;15.20;99.90;14.40;102769.00;;;;6227936;23;20176;-79
2022/04/29 10:54:34;;;;;;;1.87;1.33;;;14.90;99.90;14.90;102778.00;;;;6228002;23;20164;-79
2022/04/29 10:57:06;;;;;;;3.77;2.33;;;15.00;99.90;13.90;102758.00;;;;6254797;23;20148;-77
2022/04/29 11:00:00;;;;;;;4.57;2.53;;;14.80;99.90;13.60;102731.00;;;;6227770;23;20157;-79
2022/04/29 11:02:31;;;;;;;0.40;0.40;;;14.20;99.90;13.70;102703.00;;;;6228969;23;20204;-77
2022/04/29 11:05:04;;;;;;;4.00;3.03;;;14.30;99.90;14.50;102724.00;;;;6253973;23;20142;-77
2022/04/29 11:07:43;;;;;;;0.90;0.90;;;14.70;99.90;15.80;102781.00;;;;6227633;23;20441;-78
2022/04/29 11:10:19;;;;;;;3.63;2.40;;;15.40;99.90;14.70;102769.00;;;;6254819;23;20168;-77
2022/04/29 11:13:03;;;;;;;1.37;1.23;;;15.40;99.90;14.40;102738.00;;;;6228006;23;20181;-76
2022/04/29 11:15:46;;;;;;;1.13;1.13;;;15.10;99.90;14.60;102745.00;;;;6227776;23;20590;-76
2022/04/29 11:18:26;;;;;;;1.80;1.20;;;15.00;99.90;15.00;102749.00;;;;6202241;23;20517;-77
2022/04/29 11:20:59;;;;;;;0.67;0.67;;;15.10;99.90;15.50;102763.00;;;;6203505;23;20161;-77
2022/04/29 11:26:12;;;;;;;3.70;2.90;;;15.70;99.90;14.80;102759.00;;;;6231498;23;20181;-78
2022/04/29 11:28:40;;;;;;;1.93;1.40;;;15.30;99.90;14.60;102743.00;;;;6227389;23;20636;-79
2022/04/29 11:31:09;;;;;;;2.17;2.00;;;15.30;99.90;14.40;102741.00;;;;6227352;23;20176;-77
2022/04/29 11:33:39;;;;;;;2.93;2.73;;;14.90;99.90;15.10;102762.00;;;;6226876;23;20538;-77
2022/04/29 11:36:11;;;;;;;0.20;0.20;;;15.30;99.90;14.90;102759.00;;;;6226444;23;20233;-77
2022/04/29 11:38:48;;;;;;;2.13;2.00;;;15.30;99.90;15.20;102746.00;;;;6227747;23;20178;-78
2022/04/29 11:41:24;;;;;;;1.47;1.27;;;15.20;99.90;15.20;102751.00;;;;6227738;23;20157;-77
2022/04/29 11:43:54;;;;;;;1.50;1.50;;;15.30;99.90;15.00;102729.00;;;;6221970;23;20170;-77
2022/04/29 11:46:27;;;;;;;2.43;2.10;;;15.30;99.90;14.70;102726.00;;;;6220827;23;20568;-77
2022/04/29 11:48:57;;;;;;;4.93;3.47;;;15.10;99.90;14.90;102758.00;;;;6246753;23;20153;-77
2022/04/29 11:51:27;;;;;;;6.47;4.33;;;15.20;99.90;14.50;102740.00;;;;6221163;23;20198;-77
2022/04/29 11:54:01;;;;;;;2.40;2.17;;;15.10;99.90;13.70;102728.00;;;;6195767;23;20213;-77